Logo Frankfurt-Egelsbach Airport
Hessische Flugplatz GmbH Egelsbach
Telefon : +49 (0)6103-9418-0
E-Mail : fly@egelsbach-airport.com
   

 

 

 

 

 

 

Aktuelle Daten

Öffnungszeiten: 0800 LT - SS+30 (max 2100 LT)

PPR: 0700 LT - 0800 LT, SS+30 - 2100 LT Tel +49 6103 9418-0

Behördlich vorgeschriebenes Briefing für NVFR-Anflüge mit HPA
für die Saison 2014/2015

» Behördlich vorgeschriebenes Briefing für NVFR-Anflüge mit HPA für die Saison 2014/2015

 

Webcam

Webcam

Wetterdaten

Beobachtung von : 21-DEZ-2014 - 09:46 UTC
Sonnenaufgang : 07:21 UTC
Sonnenuntergang : 15:26 UTC
Sicht : ausgefallen
Wolkenuntergrenze : nicht feststellbar
Wind : 200 / 5 kt
Wind extrem (10 min) : 150-240 / 3-16 kt
Temperatur : 5.2° Celsius
Taupunkt : 2.2° Celsius
QNH : 1031.8 hPa
Dichtehöhe : -1190 ft

Daten werden automatisch generiert. Verfügbarkeit und Richtigkeit ohne Gewähr.
Mit freundlicher Unterstützung des Deutschen Wetterdienstes

Metar

755
SADL31 EDFE 210920
METAR EDFE 210920Z 20007KT 9999 FEW012 SCT020 BKN150 05/02 Q1032=


Notam

E3171/14 - AD HOURS OF OPS: DEC 24: 0800-1300 DEC 25: 1030-SS DEC 26-31: 0800-SS JAN 01: 1030-SS ALL TIMES UTC. OUTSIDE THESE TIMES PPR NOT POSS. 24 DEC 06:00 2014 UNTIL 01 JAN 20:00 2015.